Time;durP1;ratioP1;P1;durP2;ratioP2;P2;SDS_P1;SDS_P2;PMS_P1;PMS_P2;Temp;Humidity;BMP_temperature;BMP_pressure;BME280_temperature;BME280_humidity;BME280_pressure;Samples;Min_cycle;Max_cycle;Signal;HPM_P1;HPM_P2
2021/10/24 00:00:49;;;;;;;5.03;3.60;;;8.50;85.70;;;;;;10114781;28;20424;-64
2021/10/24 00:05:39;;;;;;;4.03;3.00;;;8.50;85.90;;;;;;10111999;28;20061;-67
2021/10/24 00:10:30;;;;;;;6.43;3.60;;;8.40;86.10;;;;;;10125887;28;20437;-65
2021/10/24 00:15:21;;;;;;;4.90;2.67;;;8.40;86.10;;;;;;10133731;28;20035;-66
2021/10/24 00:20:12;;;;;;;3.72;2.47;;;8.40;86.00;;;;;;10110982;28;20309;-69
2021/10/24 00:25:03;;;;;;;5.07;2.85;;;8.30;86.40;;;;;;10113811;28;20037;-66
2021/10/24 00:29:54;;;;;;;4.28;2.75;;;8.20;86.20;;;;;;10119954;28;20434;-64
2021/10/24 00:34:44;;;;;;;5.63;2.72;;;8.00;86.80;;;;;;10112075;28;20332;-66
2021/10/24 00:39:35;;;;;;;6.90;2.58;;;8.10;87.00;;;;;;10092433;28;20503;-66
2021/10/24 00:44:29;;;;;;;6.72;3.85;;;8.10;86.70;;;;;;10114511;28;20055;-67
2021/10/24 00:49:20;;;;;;;6.05;3.60;;;7.90;87.00;;;;;;10125349;28;20024;-67
2021/10/24 00:54:12;;;;;;;4.68;2.60;;;7.90;87.00;;;;;;10121255;28;20029;-66
2021/10/24 00:59:03;;;;;;;6.18;3.63;;;8.00;86.50;;;;;;10103477;28;20029;-67
2021/10/24 01:03:54;;;;;;;3.75;2.67;;;7.90;86.60;;;;;;10128627;28;20047;-66
2021/10/24 01:08:45;;;;;;;3.88;2.70;;;7.80;86.70;;;;;;10126632;28;20282;-66
2021/10/24 01:13:35;;;;;;;4.10;2.38;;;7.80;86.40;;;;;;10123950;28;20051;-65
2021/10/24 01:18:27;;;;;;;4.43;2.65;;;7.70;87.20;;;;;;10117650;28;20050;-64
2021/10/24 01:23:18;;;;;;;4.80;2.92;;;7.70;86.90;;;;;;10114999;28;20091;-65
2021/10/24 01:28:08;;;;;;;5.65;2.75;;;7.70;86.90;;;;;;10115555;28;20191;-63
2021/10/24 01:32:59;;;;;;;5.05;2.75;;;7.70;87.10;;;;;;10129619;28;20516;-65
2021/10/24 01:37:50;;;;;;;4.45;2.83;;;7.70;87.30;;;;;;10115457;28;20037;-65
2021/10/24 01:42:52;;;;;;;7.13;2.65;;;7.60;87.30;;;;;;10112403;28;20557;-65
2021/10/24 01:47:46;;;;;;;6.70;3.38;;;7.60;87.50;;;;;;10120616;28;20013;-63
2021/10/24 01:52:42;;;;;;;5.53;2.88;;;7.50;87.50;;;;;;10117166;28;20503;-67
2021/10/24 01:57:33;;;;;;;;;;;7.50;87.50;;;;;;10106627;28;20036;-62
2021/10/24 02:02:24;;;;;;;4.45;3.08;;;7.40;88.40;;;;;;10124636;28;19912;-64
2021/10/24 02:07:14;;;;;;;4.30;3.03;;;7.30;87.60;;;;;;10126837;28;20058;-68
2021/10/24 02:12:05;;;;;;;8.70;3.00;;;7.30;87.90;;;;;;10123037;28;20044;-61
2021/10/24 02:16:56;;;;;;;4.55;3.05;;;7.20;88.00;;;;;;10126982;28;20040;-63
2021/10/24 02:21:47;;;;;;;6.22;2.97;;;7.20;87.70;;;;;;10120027;28;20320;-64
2021/10/24 02:26:37;;;;;;;7.65;4.20;;;7.20;87.40;;;;;;10120058;28;20583;-61
2021/10/24 02:31:28;;;;;;;4.82;2.95;;;7.20;87.40;;;;;;10117278;28;20020;-69
2021/10/24 02:36:19;;;;;;;4.70;2.60;;;7.10;87.70;;;;;;10120636;28;20201;-67
2021/10/24 02:41:09;;;;;;;4.40;3.00;;;7.00;87.70;;;;;;10114333;28;20045;-67
2021/10/24 02:46:00;;;;;;;3.78;2.55;;;7.00;87.60;;;;;;10113889;28;20036;-61
2021/10/24 02:50:51;;;;;;;6.05;2.58;;;6.90;87.60;;;;;;10110578;28;20086;-67
2021/10/24 02:55:42;;;;;;;5.22;2.85;;;6.90;87.70;;;;;;10113772;28;20029;-68
2021/10/24 03:00:32;;;;;;;9.95;3.45;;;6.90;87.80;;;;;;10104767;28;20155;-68
2021/10/24 03:05:23;;;;;;;6.55;3.90;;;6.90;87.30;;;;;;10124413;28;20087;-63
2021/10/24 03:10:14;;;;;;;7.03;2.88;;;6.90;87.70;;;;;;10119178;28;20728;-61
2021/10/24 03:15:05;;;;;;;4.05;3.10;;;6.80;87.70;;;;;;10120705;28;20024;-67
2021/10/24 03:19:55;;;;;;;6.22;2.92;;;6.80;87.80;;;;;;10116930;28;20103;-61
2021/10/24 03:24:46;;;;;;;4.63;3.22;;;6.70;87.80;;;;;;10125139;28;20033;-61
2021/10/24 03:29:37;;;;;;;7.63;3.67;;;6.70;87.70;;;;;;10105954;28;20230;-65
2021/10/24 03:34:28;;;;;;;7.30;3.60;;;6.70;88.50;;;;;;10122137;28;20039;-63
2021/10/24 03:39:18;;;;;;;4.45;2.75;;;6.60;87.80;;;;;;10127725;28;20506;-62
2021/10/24 03:44:09;;;;;;;6.43;3.97;;;6.60;87.90;;;;;;10088971;28;20053;-65
2021/10/24 03:49:00;;;;;;;5.72;2.83;;;6.50;88.10;;;;;;10123910;28;20029;-61
2021/10/24 03:53:51;;;;;;;10.50;3.60;;;6.50;88.20;;;;;;10129606;28;20548;-61
2021/10/24 03:58:43;;;;;;;4.45;3.22;;;6.40;88.60;;;;;;10132652;28;20029;-64
2021/10/24 04:03:34;;;;;;;3.50;2.88;;;6.50;88.60;;;;;;10110859;28;20033;-63
2021/10/24 04:08:25;;;;;;;3.47;2.58;;;6.40;88.50;;;;;;10130915;28;20040;-65
2021/10/24 04:13:16;;;;;;;6.03;3.17;;;6.50;88.10;;;;;;10126585;28;20494;-63
2021/10/24 04:18:06;;;;;;;7.32;3.47;;;6.20;88.50;;;;;;10123438;28;20248;-69
2021/10/24 04:22:57;;;;;;;7.35;3.25;;;6.20;89.10;;;;;;10126855;28;20052;-70
2021/10/24 04:27:48;;;;;;;5.85;3.58;;;6.30;88.70;;;;;;10128952;28;20419;-69
2021/10/24 04:32:40;;;;;;;7.75;3.47;;;6.30;88.70;;;;;;10129725;28;20021;-72
2021/10/24 04:37:32;;;;;;;4.68;2.85;;;6.30;88.70;;;;;;10126576;28;20040;-69
2021/10/24 04:42:23;;;;;;;5.25;2.83;;;6.30;89.10;;;;;;10122128;28;20486;-69
2021/10/24 04:47:14;;;;;;;6.68;3.30;;;6.20;89.40;;;;;;10119871;28;20025;-69
2021/10/24 04:52:05;;;;;;;5.03;3.03;;;6.20;89.80;;;;;;10109661;28;20028;-66
2021/10/24 04:56:56;;;;;;;4.10;3.13;;;6.20;89.10;;;;;;10128731;28;20036;-61
2021/10/24 05:01:47;;;;;;;4.68;3.13;;;6.20;89.50;;;;;;10119905;28;20033;-68
2021/10/24 05:06:38;;;;;;;4.25;3.17;;;6.20;89.40;;;;;;10122501;28;20079;-68
2021/10/24 05:11:28;;;;;;;6.03;3.35;;;6.20;89.40;;;;;;10114560;28;20028;-66
2021/10/24 05:16:19;;;;;;;4.40;2.65;;;6.10;89.70;;;;;;10115192;28;20036;-67
2021/10/24 05:21:10;;;;;;;5.78;2.95;;;6.10;90.00;;;;;;10106702;28;20700;-67
2021/10/24 05:26:04;;;;;;;6.60;3.83;;;6.00;90.00;;;;;;10111577;28;20037;-70
2021/10/24 05:30:54;;;;;;;4.72;2.95;;;6.00;90.10;;;;;;10120306;28;20538;-66
2021/10/24 05:35:45;;;;;;;4.03;2.75;;;6.00;90.00;;;;;;10128046;28;20072;-67
2021/10/24 05:40:36;;;;;;;4.72;2.92;;;5.90;90.10;;;;;;10122638;28;20025;-67
2021/10/24 05:45:26;;;;;;;5.55;3.10;;;5.90;90.00;;;;;;10118906;28;20055;-65
2021/10/24 05:50:17;;;;;;;6.60;4.03;;;5.90;89.90;;;;;;10107863;28;20024;-62
2021/10/24 05:55:08;;;;;;;4.53;3.13;;;5.90;89.60;;;;;;10128043;28;20127;-61
2021/10/24 05:59:58;;;;;;;7.78;3.78;;;5.80;89.80;;;;;;10110548;28;20028;-63
2021/10/24 06:04:49;;;;;;;8.82;4.28;;;5.80;89.60;;;;;;10118970;28;20056;-62
2021/10/24 06:09:50;;;;;;;6.65;3.53;;;5.80;89.80;;;;;;10107127;28;20055;-69
2021/10/24 06:14:41;;;;;;;6.05;3.58;;;5.80;89.80;;;;;;10123371;28;20283;-68
2021/10/24 06:19:32;;;;;;;8.60;3.83;;;5.90;89.70;;;;;;10122487;28;20029;-68
2021/10/24 06:24:23;;;;;;;9.65;4.05;;;5.90;89.70;;;;;;10103526;28;20095;-67
2021/10/24 06:29:13;;;;;;;6.45;3.45;;;5.90;89.60;;;;;;10114551;28;20043;-68
2021/10/24 06:34:04;;;;;;;7.32;3.67;;;5.90;89.70;;;;;;10106552;28;20025;-70
2021/10/24 06:38:55;;;;;;;6.85;3.47;;;5.90;89.90;;;;;;10097071;28;20048;-65
2021/10/24 06:43:45;;;;;;;5.90;3.67;;;5.90;89.80;;;;;;10124842;28;20035;-65
2021/10/24 06:48:36;;;;;;;7.63;3.38;;;5.90;89.80;;;;;;10116614;28;20020;-69
2021/10/24 06:53:27;;;;;;;6.78;3.83;;;5.90;89.90;;;;;;10113828;28;20032;-61
2021/10/24 06:58:17;;;;;;;6.55;3.72;;;6.00;89.70;;;;;;10124253;28;20230;-62
2021/10/24 07:03:08;;;;;;;6.90;3.63;;;6.00;90.00;;;;;;10120476;28;20029;-65
2021/10/24 07:07:59;;;;;;;8.73;3.92;;;6.00;90.00;;;;;;10127478;28;20411;-65
2021/10/24 07:12:52;;;;;;;5.82;3.50;;;6.00;90.00;;;;;;10111142;28;20032;-63
2021/10/24 07:17:43;;;;;;;9.52;4.28;;;6.00;90.10;;;;;;10125738;28;20484;-63
2021/10/24 07:22:34;;;;;;;8.10;4.57;;;6.00;90.10;;;;;;10119826;28;20029;-62
2021/10/24 07:27:24;;;;;;;7.68;4.20;;;6.10;90.20;;;;;;10117527;28;20512;-61
2021/10/24 07:32:15;;;;;;;9.27;5.20;;;6.20;90.30;;;;;;10120971;28;20025;-64
2021/10/24 07:37:06;;;;;;;6.78;4.57;;;6.30;90.00;;;;;;10122652;28;20135;-61
2021/10/24 07:41:57;;;;;;;7.93;4.45;;;6.40;90.10;;;;;;10105444;28;20283;-62
2021/10/24 07:46:49;;;;;;;8.90;4.75;;;6.40;90.20;;;;;;10120150;28;20048;-63
2021/10/24 07:51:41;;;;;;;13.25;5.78;;;6.40;90.30;;;;;;10105086;28;20433;-64
2021/10/24 07:56:39;;;;;;;11.40;5.85;;;6.40;90.30;;;;;;10114983;28;20048;-62
2021/10/24 08:01:36;;;;;;;10.85;5.65;;;6.40;90.20;;;;;;10128886;28;20097;-60
2021/10/24 08:06:28;;;;;;;64.25;32.95;;;6.40;90.40;;;;;;10112333;28;20040;-65
2021/10/24 08:11:19;;;;;;;16.55;9.88;;;6.60;90.30;;;;;;10133522;28;20172;-61
2021/10/24 08:16:10;;;;;;;12.55;6.65;;;6.70;90.30;;;;;;10139634;28;20111;-62
2021/10/24 08:21:01;;;;;;;11.55;5.75;;;6.80;90.20;;;;;;10137249;28;20033;-63
2021/10/24 08:25:52;;;;;;;11.57;6.63;;;6.80;90.20;;;;;;10136070;28;20047;-61
2021/10/24 08:30:43;;;;;;;11.85;6.55;;;6.90;90.30;;;;;;10124534;28;20487;-61
2021/10/24 08:35:33;;;;;;;11.40;5.75;;;6.90;90.30;;;;;;10118345;28;20049;-62
2021/10/24 08:40:28;;;;;;;12.57;6.15;;;6.90;90.40;;;;;;10134625;28;20040;-62
2021/10/24 08:45:19;;;;;;;10.10;5.93;;;6.90;90.50;;;;;;10136350;28;20098;-60
2021/10/24 08:50:11;;;;;;;8.93;5.25;;;7.00;90.40;;;;;;10129889;28;20027;-63
2021/10/24 08:55:03;;;;;;;9.93;6.40;;;7.10;90.50;;;;;;10118738;28;20554;-61
2021/10/24 08:59:55;;;;;;;10.20;5.50;;;7.30;90.50;;;;;;10115185;28;20021;-60
2021/10/24 09:04:53;;;;;;;8.50;4.95;;;7.50;90.40;;;;;;10131811;28;20041;-62
2021/10/24 09:09:44;;;;;;;9.50;6.25;;;7.70;90.50;;;;;;10127916;28;20036;-61
2021/10/24 09:14:51;;;;;;;8.18;5.32;;;8.00;90.40;;;;;;10121401;28;20035;-61
2021/10/24 09:19:45;;;;;;;10.50;5.80;;;8.00;90.50;;;;;;10134359;28;20024;-60
2021/10/24 09:24:35;;;;;;;9.55;5.63;;;8.10;90.60;;;;;;10138062;28;20032;-61
2021/10/24 09:29:26;;;;;;;12.05;6.10;;;7.90;90.60;;;;;;10125686;28;20191;-60
2021/10/24 09:34:21;;;;;;;9.10;5.38;;;7.70;90.50;;;;;;10117094;28;20024;-60
2021/10/24 09:39:11;;;;;;;7.90;5.35;;;7.80;90.50;;;;;;10136017;28;20732;-65
2021/10/24 09:44:14;;;;;;;6.93;4.78;;;7.80;90.40;;;;;;10127037;28;20401;-64
2021/10/24 09:49:16;;;;;;;9.82;5.88;;;7.90;90.40;;;;;;10129368;28;20035;-61
2021/10/24 09:54:24;;;;;;;11.52;6.32;;;8.20;90.00;;;;;;10135765;28;20036;-60
2021/10/24 09:59:17;;;;;;;9.48;5.00;;;8.20;90.10;;;;;;10113870;28;20495;-61
2021/10/24 10:04:10;;;;;;;12.13;7.10;;;8.20;90.00;;;;;;10132377;28;20468;-60
2021/10/24 10:09:00;;;;;;;9.63;5.72;;;8.30;90.00;;;;;;10135738;28;20121;-62
2021/10/24 10:14:00;;;;;;;9.57;5.53;;;8.40;89.80;;;;;;10134315;28;20424;-62
2021/10/24 10:18:57;;;;;;;8.52;5.35;;;8.60;89.50;;;;;;10122997;28;20028;-62
2021/10/24 10:23:47;;;;;;;10.05;5.90;;;8.70;89.50;;;;;;10131528;28;20139;-62
2021/10/24 10:28:46;;;;;;;9.75;5.80;;;8.70;89.60;;;;;;10130195;28;20453;-60
2021/10/24 10:33:37;;;;;;;8.70;6.53;;;8.80;89.40;;;;;;10125204;28;20078;-62
2021/10/24 10:38:40;;;;;;;14.18;7.15;;;8.90;89.10;;;;;;10111558;28;20133;-61
2021/10/24 10:43:32;;;;;;;12.43;6.00;;;9.10;88.90;;;;;;10126041;28;20056;-63
2021/10/24 10:48:38;;;;;;;10.85;5.90;;;9.20;88.90;;;;;;10127515;28;20032;-66
2021/10/24 10:53:31;;;;;;;9.52;6.00;;;9.40;88.60;;;;;;10124418;28;20025;-67
2021/10/24 10:58:36;;;;;;;8.88;5.80;;;9.60;88.30;;;;;;10125473;28;20119;-65
2021/10/24 11:03:43;;;;;;;8.52;5.88;;;9.70;88.20;;;;;;10126483;28;20094;-66
2021/10/24 11:09:00;;;;;;;8.93;6.25;;;9.90;88.00;;;;;;10119128;28;20134;-66
2021/10/24 11:13:51;;;;;;;10.85;6.35;;;10.00;87.60;;;;;;10114267;28;20060;-63
2021/10/24 11:18:42;;;;;;;8.75;5.78;;;10.10;87.70;;;;;;10132247;28;20445;-62
2021/10/24 11:23:32;;;;;;;6.35;4.60;;;10.20;87.50;;;;;;10131486;28;20121;-63
2021/10/24 11:28:28;;;;;;;7.20;4.60;;;10.30;87.30;;;;;;10132947;28;20031;-64
2021/10/24 11:33:18;;;;;;;9.15;4.70;;;10.60;86.90;;;;;;10121242;28;20082;-64
2021/10/24 11:38:12;;;;;;;9.20;4.78;;;10.60;86.90;;;;;;10127376;28;20094;-67
2021/10/24 11:43:07;;;;;;;7.40;5.25;;;10.80;86.70;;;;;;10115136;28;20045;-64
2021/10/24 11:48:10;;;;;;;8.57;4.77;;;11.00;86.20;;;;;;10121099;28;20024;-66
2021/10/24 11:53:01;;;;;;;7.40;4.88;;;11.20;85.90;;;;;;10134620;28;20025;-66
2021/10/24 11:58:04;;;;;;;9.25;5.75;;;11.40;85.50;;;;;;10140998;28;20547;-65
2021/10/24 12:03:02;;;;;;;9.55;5.10;;;11.50;85.10;;;;;;10130527;28;20029;-65
2021/10/24 12:07:53;;;;;;;6.53;3.40;;;11.70;84.90;;;;;;10139359;28;20048;-65
2021/10/24 12:12:44;;;;;;;5.78;3.70;;;12.00;84.30;;;;;;10139409;28;20475;-66
2021/10/24 12:17:39;;;;;;;7.43;4.35;;;12.20;83.90;;;;;;10119493;28;20024;-63
2021/10/24 12:22:42;;;;;;;7.07;3.47;;;12.40;83.60;;;;;;10137730;28;20494;-65
2021/10/24 12:27:35;;;;;;;4.30;3.20;;;12.70;83.10;;;;;;10139412;28;20146;-64
2021/10/24 12:32:26;;;;;;;4.95;3.80;;;13.10;82.70;;;;;;10105897;28;20032;-66
2021/10/24 12:37:17;;;;;;;4.63;3.13;;;13.50;82.50;;;;;;10129662;28;20406;-63
2021/10/24 12:42:18;;;;;;;7.95;3.45;;;14.00;82.10;;;;;;10135469;28;20124;-64
2021/10/24 12:47:11;;;;;;;6.70;4.07;;;14.40;81.70;;;;;;10111233;28;20041;-64
2021/10/24 12:52:10;;;;;;;5.32;3.78;;;14.60;81.70;;;;;;10127358;28;20024;-65
2021/10/24 12:57:02;;;;;;;5.50;3.35;;;15.00;81.70;;;;;;10135069;28;20499;-65
2021/10/24 13:01:53;;;;;;;7.68;4.38;;;15.20;81.90;;;;;;10127463;28;20681;-66
2021/10/24 13:06:44;;;;;;;8.25;3.97;;;15.60;82.30;;;;;;10114270;28;20131;-64
2021/10/24 13:11:35;;;;;;;5.18;3.72;;;16.00;82.40;;;;;;10136765;28;20116;-64
2021/10/24 13:16:26;;;;;;;9.15;4.57;;;16.30;82.50;;;;;;10137457;28;20035;-64
2021/10/24 13:26:40;;;;;;;7.60;4.28;;;16.90;81.90;;;;;;10110034;28;20115;-60
2021/10/24 13:31:34;;;;;;;6.55;4.50;;;17.10;80.60;;;;;;10119979;28;20036;-60
2021/10/24 13:36:25;;;;;;;6.00;4.10;;;16.60;77.50;;;;;;10126687;28;20052;-61
2021/10/24 13:41:16;;;;;;;6.28;3.97;;;17.00;77.60;;;;;;10132012;28;20025;-61
2021/10/24 13:46:07;;;;;;;8.25;4.55;;;17.70;76.70;;;;;;10134126;28;20096;-63
2021/10/24 13:50:58;;;;;;;4.22;3.42;;;17.80;75.50;;;;;;10136951;28;20429;-65
2021/10/24 13:55:49;;;;;;;6.13;4.07;;;17.30;74.10;;;;;;10129845;28;20503;-66
2021/10/24 14:00:39;;;;;;;8.05;4.63;;;16.60;72.20;;;;;;10131724;28;20028;-62
2021/10/24 14:05:31;;;;;;;15.10;8.15;;;16.20;71.20;;;;;;10131460;28;20558;-63
2021/10/24 14:10:22;;;;;;;8.82;5.45;;;15.90;70.20;;;;;;10123535;28;20499;-65
2021/10/24 14:15:12;;;;;;;6.60;4.45;;;16.00;69.40;;;;;;10133174;28;20041;-62
2021/10/24 14:20:05;;;;;;;6.47;4.05;;;15.70;68.80;;;;;;10129523;28;20032;-63
2021/10/24 14:24:56;;;;;;;5.80;3.40;;;15.50;68.90;;;;;;10111364;28;20040;-61
2021/10/24 14:29:46;;;;;;;9.55;4.60;;;15.40;68.80;;;;;;10118187;28;20029;-64
2021/10/24 14:34:38;;;;;;;5.32;3.65;;;15.10;69.00;;;;;;10126169;28;20024;-62
2021/10/24 14:39:29;;;;;;;5.18;2.92;;;14.90;69.40;;;;;;10126574;28;20049;-63
2021/10/24 14:44:19;;;;;;;8.10;5.03;;;14.70;69.50;;;;;;10118113;28;20048;-62
2021/10/24 14:49:10;;;;;;;5.88;3.55;;;14.60;69.70;;;;;;10132294;28;20020;-63
2021/10/24 14:54:01;;;;;;;7.45;3.78;;;14.40;69.90;;;;;;10112607;28;20059;-67
2021/10/24 14:58:51;;;;;;;8.13;3.53;;;14.30;70.20;;;;;;10121821;28;20119;-65
2021/10/24 15:03:42;;;;;;;8.60;5.18;;;14.10;70.40;;;;;;10132445;28;20047;-63
2021/10/24 15:08:33;;;;;;;8.45;3.95;;;14.00;70.60;;;;;;10130470;28;20099;-61
2021/10/24 15:13:23;;;;;;;6.88;3.60;;;13.90;70.80;;;;;;10118229;28;20119;-63
2021/10/24 15:18:18;;;;;;;4.95;2.95;;;13.90;70.80;;;;;;10129894;28;20433;-63
2021/10/24 15:23:08;;;;;;;5.57;3.50;;;13.80;70.90;;;;;;10130244;28;20043;-62
2021/10/24 15:27:59;;;;;;;5.28;3.50;;;13.70;71.00;;;;;;10108197;28;20447;-62
2021/10/24 15:32:50;;;;;;;4.85;3.05;;;13.70;71.20;;;;;;10121873;28;20456;-61
2021/10/24 15:37:41;;;;;;;10.38;3.53;;;13.60;71.30;;;;;;10129919;28;20071;-62
2021/10/24 15:42:32;;;;;;;8.68;3.38;;;13.60;71.40;;;;;;10130267;28;20506;-61
2021/10/24 15:47:23;;;;;;;6.07;3.30;;;13.60;71.50;;;;;;10122444;28;20068;-60
2021/10/24 15:52:13;;;;;;;7.55;3.28;;;13.40;71.70;;;;;;10113250;28;20414;-62
2021/10/24 15:57:04;;;;;;;6.03;3.40;;;13.30;71.90;;;;;;10128209;28;20491;-62
2021/10/24 16:01:55;;;;;;;5.75;2.95;;;13.10;72.20;;;;;;10111266;28;20386;-61
2021/10/24 16:06:46;;;;;;;6.60;3.40;;;13.10;72.30;;;;;;10119145;28;20059;-60
2021/10/24 16:11:36;;;;;;;5.18;3.45;;;13.00;72.60;;;;;;10126052;28;20398;-61
2021/10/24 16:16:27;;;;;;;6.45;3.50;;;12.80;72.80;;;;;;10112427;28;20447;-61
2021/10/24 16:21:18;;;;;;;8.05;3.33;;;12.70;73.00;;;;;;10110862;28;20086;-63
2021/10/24 16:26:09;;;;;;;5.75;3.42;;;12.60;73.30;;;;;;10123336;28;20398;-62
2021/10/24 16:30:59;;;;;;;9.80;3.88;;;12.50;73.50;;;;;;10107454;28;20039;-60
2021/10/24 16:35:50;;;;;;;7.07;4.28;;;12.30;73.70;;;;;;10139362;28;20368;-62
2021/10/24 16:40:41;;;;;;;6.85;3.67;;;12.20;74.00;;;;;;10125297;28;20538;-61
2021/10/24 16:45:31;;;;;;;6.85;4.07;;;12.10;74.70;;;;;;10134382;28;20118;-63
2021/10/24 16:50:24;;;;;;;11.45;4.47;;;12.10;74.70;;;;;;10137345;28;20073;-63
2021/10/24 16:55:16;;;;;;;8.63;4.43;;;11.90;74.90;;;;;;10138546;28;20032;-62
2021/10/24 17:00:08;;;;;;;10.18;5.00;;;11.90;75.30;;;;;;10118031;28;20395;-62
2021/10/24 17:04:58;;;;;;;8.25;5.25;;;11.80;75.60;;;;;;10136533;28;20039;-63
2021/10/24 17:09:54;;;;;;;7.55;5.40;;;11.70;75.90;;;;;;10133240;28;20025;-65
2021/10/24 17:14:45;;;;;;;9.57;4.93;;;11.60;76.20;;;;;;10132054;28;20025;-66
2021/10/24 17:19:36;;;;;;;9.23;4.20;;;11.60;76.50;;;;;;10137054;28;20036;-64
2021/10/24 17:24:26;;;;;;;9.73;5.65;;;11.50;76.90;;;;;;10117569;28;20060;-65
2021/10/24 17:29:17;;;;;;;8.05;4.80;;;11.50;77.10;;;;;;10098215;28;20033;-67
2021/10/24 17:34:08;;;;;;;15.00;6.05;;;11.40;77.50;;;;;;10130160;28;20036;-66
2021/10/24 17:39:04;;;;;;;11.68;5.88;;;11.40;77.80;;;;;;10131981;28;20049;-65
2021/10/24 17:43:54;;;;;;;11.88;5.85;;;11.40;78.10;;;;;;10129942;28;20055;-63
2021/10/24 17:48:45;;;;;;;10.95;5.55;;;11.30;78.40;;;;;;10133711;28;20031;-60
2021/10/24 17:53:36;;;;;;;12.75;6.45;;;11.20;78.80;;;;;;10132671;28;20036;-65
2021/10/24 17:58:27;;;;;;;21.13;10.02;;;11.20;79.20;;;;;;10113327;28;20036;-65
2021/10/24 18:03:17;;;;;;;14.60;7.05;;;11.10;79.40;;;;;;10122095;28;20039;-62
2021/10/24 18:08:08;;;;;;;11.43;6.93;;;11.10;79.70;;;;;;10123894;28;20031;-60
2021/10/24 18:12:59;;;;;;;10.30;5.75;;;11.10;80.00;;;;;;10126691;28;20024;-60
2021/10/24 18:17:50;;;;;;;11.75;5.75;;;11.00;80.30;;;;;;10120971;28;20055;-62
2021/10/24 18:22:42;;;;;;;14.85;6.68;;;10.90;80.60;;;;;;10126447;28;20541;-61
2021/10/24 18:27:34;;;;;;;12.70;6.05;;;10.90;80.90;;;;;;10125436;28;20055;-62
2021/10/24 18:32:26;;;;;;;13.43;6.05;;;10.90;81.10;;;;;;10121160;28;20024;-62
2021/10/24 18:37:17;;;;;;;11.82;5.70;;;10.80;81.30;;;;;;10125948;28;20051;-60
2021/10/24 18:42:09;;;;;;;10.15;6.38;;;10.80;81.60;;;;;;10124069;28;20493;-62
2021/10/24 18:46:59;;;;;;;8.98;5.85;;;10.70;81.80;;;;;;10095115;28;20110;-64
2021/10/24 18:51:50;;;;;;;8.77;5.93;;;10.70;82.10;;;;;;10119892;28;20028;-62
2021/10/24 18:56:41;;;;;;;11.85;6.45;;;10.60;82.30;;;;;;10125404;28;20040;-64
2021/10/24 19:01:32;;;;;;;9.02;5.82;;;10.70;82.50;;;;;;10122280;28;20142;-64
2021/10/24 19:06:22;;;;;;;9.90;5.90;;;10.70;82.60;;;;;;10115022;28;20040;-65
2021/10/24 19:11:14;;;;;;;9.55;5.80;;;10.60;82.80;;;;;;10121966;28;20035;-64
2021/10/24 19:16:05;;;;;;;11.85;6.18;;;10.50;83.10;;;;;;10117231;28;20138;-64
2021/10/24 19:20:57;;;;;;;9.88;5.35;;;10.50;83.20;;;;;;10112538;28;20324;-67
2021/10/24 19:25:47;;;;;;;10.70;5.82;;;10.50;83.40;;;;;;10122929;28;20550;-65
2021/10/24 19:30:38;;;;;;;17.65;9.68;;;10.40;83.60;;;;;;10110662;28;20025;-63
2021/10/24 19:35:29;;;;;;;24.13;11.88;;;10.40;83.90;;;;;;10116576;28;20045;-62
2021/10/24 19:40:20;;;;;;;17.13;7.70;;;10.40;84.00;;;;;;10109688;28;20140;-63
2021/10/24 19:45:12;;;;;;;11.85;6.97;;;10.30;84.20;;;;;;10094886;28;20032;-63
2021/10/24 19:50:05;;;;;;;11.20;7.15;;;10.30;84.70;;;;;;10101072;28;20025;-63
2021/10/24 19:55:01;;;;;;;11.73;7.25;;;10.20;84.70;;;;;;10121937;28;20048;-65
2021/10/24 19:59:53;;;;;;;11.82;7.03;;;10.10;85.50;;;;;;10109944;28;20029;-66
2021/10/24 20:04:43;;;;;;;10.55;6.63;;;10.00;85.20;;;;;;10123657;28;20490;-65
2021/10/24 20:09:34;;;;;;;9.63;6.43;;;10.00;85.40;;;;;;10112407;28;20122;-61
2021/10/24 20:14:25;;;;;;;11.23;6.22;;;10.00;85.70;;;;;;10133121;28;20029;-62
2021/10/24 20:19:16;;;;;;;8.63;5.53;;;9.90;85.90;;;;;;10129579;28;20437;-61
2021/10/24 20:24:06;;;;;;;11.07;6.40;;;9.90;86.10;;;;;;10131528;28;20569;-65
2021/10/24 20:28:57;;;;;;;9.35;5.88;;;9.90;86.30;;;;;;10115756;28;20032;-64
2021/10/24 20:33:48;;;;;;;10.10;6.90;;;9.90;86.50;;;;;;10131755;28;20021;-61
2021/10/24 20:38:39;;;;;;;10.35;7.05;;;9.80;86.70;;;;;;10125908;28;20457;-61
2021/10/24 20:43:30;;;;;;;13.02;7.30;;;9.80;86.80;;;;;;10117486;28;20056;-62
2021/10/24 20:48:20;;;;;;;11.40;7.22;;;9.70;87.00;;;;;;10117253;28;20024;-60
2021/10/24 20:53:12;;;;;;;12.38;7.25;;;9.70;87.40;;;;;;10119028;28;20036;-62
2021/10/24 20:58:02;;;;;;;13.43;7.82;;;9.60;87.60;;;;;;10121398;28;20123;-62
2021/10/24 21:02:53;;;;;;;13.38;7.55;;;9.60;87.70;;;;;;10121948;28;20514;-64
2021/10/24 21:07:44;;;;;;;16.08;8.93;;;9.60;88.00;;;;;;10115591;28;20029;-62
2021/10/24 21:12:44;;;;;;;16.00;8.68;;;9.50;88.10;;;;;;10124496;28;20094;-63
2021/10/24 21:17:35;;;;;;;12.75;7.47;;;9.40;88.40;;;;;;10104292;28;20072;-59
2021/10/24 21:22:26;;;;;;;12.48;8.30;;;9.40;88.50;;;;;;10121925;28;20086;-62
2021/10/24 21:27:16;;;;;;;15.63;9.02;;;9.50;88.50;;;;;;10120126;28;20037;-60
2021/10/24 21:32:07;;;;;;;17.23;9.10;;;9.30;88.60;;;;;;10105637;28;20028;-59
2021/10/24 21:36:58;;;;;;;15.00;9.00;;;9.30;88.90;;;;;;10114707;28;20320;-61
2021/10/24 21:41:49;;;;;;;16.73;9.10;;;9.20;89.00;;;;;;10120531;28;20048;-62
2021/10/24 21:46:39;;;;;;;13.73;9.18;;;9.20;89.10;;;;;;10110664;28;20050;-61
2021/10/24 21:51:30;;;;;;;16.05;8.43;;;9.20;89.20;;;;;;10109693;28;20065;-61
2021/10/24 21:56:21;;;;;;;15.07;9.10;;;9.10;89.40;;;;;;10115035;28;20052;-60
2021/10/24 22:01:13;;;;;;;17.35;9.20;;;9.10;89.70;;;;;;10115747;28;20090;-60
2021/10/24 22:06:04;;;;;;;18.58;8.70;;;9.10;89.70;;;;;;10128342;28;20058;-62
2021/10/24 22:10:55;;;;;;;13.77;9.65;;;9.00;89.80;;;;;;10104243;28;20023;-66
2021/10/24 22:15:46;;;;;;;17.27;10.18;;;9.00;90.00;;;;;;10107464;28;20086;-62
2021/10/24 22:20:37;;;;;;;15.30;9.52;;;8.80;90.10;;;;;;10118815;28;20031;-65
2021/10/24 22:25:27;;;;;;;13.52;8.38;;;8.60;90.20;;;;;;10113050;28;20167;-66
2021/10/24 22:30:19;;;;;;;15.82;8.50;;;8.50;90.40;;;;;;10116752;28;20283;-63
2021/10/24 22:35:09;;;;;;;15.27;9.43;;;8.50;90.30;;;;;;10125717;28;20044;-65
2021/10/24 22:40:00;;;;;;;13.50;7.95;;;8.50;90.40;;;;;;10108419;28;20029;-62
2021/10/24 22:44:52;;;;;;;12.45;9.07;;;8.40;90.50;;;;;;10114054;28;20404;-61
2021/10/24 22:49:42;;;;;;;16.48;8.77;;;8.40;90.40;;;;;;10102997;28;20024;-62
2021/10/24 22:54:33;;;;;;;15.02;9.02;;;8.30;90.50;;;;;;10119324;28;20020;-61
2021/10/24 22:59:25;;;;;;;17.08;8.18;;;8.40;90.50;;;;;;10118340;28;20025;-61
2021/10/24 23:04:16;;;;;;;12.50;7.40;;;8.30;90.50;;;;;;10106906;28;20036;-63
2021/10/24 23:09:08;;;;;;;14.00;7.40;;;8.40;90.60;;;;;;10107370;28;20028;-61
2021/10/24 23:13:59;;;;;;;13.30;6.55;;;8.40;90.60;;;;;;10101727;28;20057;-59
2021/10/24 23:18:49;;;;;;;11.77;7.05;;;8.40;90.60;;;;;;10115589;28;20073;-65
2021/10/24 23:23:40;;;;;;;12.15;6.47;;;8.40;90.60;;;;;;10114263;28;20446;-67
2021/10/24 23:28:30;;;;;;;14.55;6.35;;;8.30;90.70;;;;;;10119420;28;20086;-62
2021/10/24 23:33:22;;;;;;;11.43;6.40;;;8.30;90.70;;;;;;10119480;28;20499;-64
2021/10/24 23:38:12;;;;;;;9.40;5.88;;;8.20;90.90;;;;;;10092057;28;20136;-64
2021/10/24 23:43:03;;;;;;;8.70;5.88;;;8.10;91.00;;;;;;10116267;28;20116;-66
2021/10/24 23:47:54;;;;;;;8.95;5.50;;;8.10;91.10;;;;;;10124652;28;20040;-61
2021/10/24 23:52:46;;;;;;;7.65;5.72;;;8.10;91.10;;;;;;10124262;28;20028;-63
2021/10/24 23:57:36;;;;;;;10.07;5.00;;;8.10;91.10;;;;;;10121862;28;20271;-60
